createdAt,value
2023-05-20T00:01:26.221Z,6.95
2023-05-20T00:03:52.834Z,3.60
2023-05-20T00:06:19.607Z,3.20
2023-05-20T00:08:46.083Z,3.33
2023-05-20T00:11:12.541Z,2.83
2023-05-20T00:13:39.119Z,3.17
2023-05-20T00:16:06.260Z,3.65
2023-05-20T00:18:32.734Z,3.65
2023-05-20T00:20:59.190Z,7.22
2023-05-20T00:23:25.640Z,3.78
2023-05-20T00:25:52.084Z,2.85
2023-05-20T00:28:19.692Z,6.43
2023-05-20T00:30:46.130Z,3.65
2023-05-20T00:33:12.720Z,4.22
2023-05-20T00:35:39.229Z,7.43
2023-05-20T00:38:05.785Z,6.50
2023-05-20T00:40:32.291Z,4.20
2023-05-20T00:42:58.727Z,4.07
2023-05-20T00:45:25.453Z,3.90
2023-05-20T00:47:52.164Z,3.30
2023-05-20T00:50:18.649Z,4.47
2023-05-20T00:52:45.171Z,4.82
2023-05-20T00:55:11.933Z,4.95
2023-05-20T00:57:38.672Z,4.53
2023-05-20T01:00:06.144Z,4.43
2023-05-20T01:02:32.819Z,6.47
2023-05-20T01:04:59.520Z,5.78
2023-05-20T01:07:26.069Z,3.55
2023-05-20T01:09:54.169Z,5.75
2023-05-20T01:12:23.804Z,3.80
2023-05-20T01:14:56.508Z,3.92
2023-05-20T01:17:26.344Z,5.18
2023-05-20T01:19:54.745Z,7.15
2023-05-20T01:22:27.986Z,4.20
2023-05-20T01:24:54.427Z,4.65
2023-05-20T01:27:22.526Z,3.42
2023-05-20T01:29:53.153Z,4.50
2023-05-20T01:32:22.962Z,4.85
2023-05-20T01:34:51.366Z,4.00
2023-05-20T01:37:19.441Z,8.57
2023-05-20T01:39:47.805Z,4.30
2023-05-20T01:42:15.406Z,3.88
2023-05-20T01:44:41.871Z,3.22
2023-05-20T01:47:08.359Z,4.10
2023-05-20T01:49:34.967Z,4.63
2023-05-20T01:52:01.457Z,6.28
2023-05-20T01:54:27.938Z,4.78
2023-05-20T01:56:54.368Z,6.65
2023-05-20T01:59:20.777Z,8.98
2023-05-20T02:01:47.260Z,6.97
2023-05-20T02:04:13.882Z,3.05
2023-05-20T02:06:40.559Z,4.15
2023-05-20T02:09:07.123Z,5.38
2023-05-20T02:11:33.652Z,3.95
2023-05-20T02:14:00.159Z,4.68
2023-05-20T02:16:26.639Z,3.00
2023-05-20T02:18:53.213Z,3.22
2023-05-20T02:21:19.718Z,3.30
2023-05-20T02:23:46.464Z,3.70
2023-05-20T02:26:12.877Z,4.45
2023-05-20T02:28:43.462Z,3.95
2023-05-20T02:31:09.887Z,7.38
2023-05-20T02:33:36.370Z,3.78
2023-05-20T02:36:02.794Z,3.78
2023-05-20T02:38:29.257Z,3.60
2023-05-20T02:40:56.651Z,4.75
2023-05-20T02:43:23.181Z,5.35
2023-05-20T02:45:49.622Z,4.07
2023-05-20T02:48:16.288Z,4.35
2023-05-20T02:50:42.690Z,5.10
2023-05-20T02:53:09.125Z,3.50
2023-05-20T02:55:36.157Z,5.85
2023-05-20T02:58:02.869Z,5.30
2023-05-20T03:00:31.221Z,4.18
2023-05-20T03:02:59.066Z,4.97
2023-05-20T03:05:27.314Z,4.72
2023-05-20T03:07:53.860Z,4.00
2023-05-20T03:10:20.293Z,4.45
2023-05-20T03:12:46.726Z,4.22
2023-05-20T03:15:13.437Z,3.95
2023-05-20T03:17:39.880Z,4.30
2023-05-20T03:20:07.389Z,6.13
2023-05-20T03:22:33.960Z,3.40
2023-05-20T03:25:03.761Z,4.18
2023-05-20T03:27:31.074Z,3.70
2023-05-20T03:29:57.491Z,4.43
2023-05-20T03:32:23.943Z,5.78
2023-05-20T03:34:50.378Z,4.10
2023-05-20T03:37:16.802Z,5.05
2023-05-20T03:39:43.238Z,6.05
2023-05-20T03:42:09.637Z,4.18
2023-05-20T03:44:36.054Z,5.38
2023-05-20T03:47:02.529Z,4.20
2023-05-20T03:49:28.996Z,4.80
2023-05-20T03:51:55.402Z,5.47
2023-05-20T03:54:21.826Z,4.63
2023-05-20T03:56:49.351Z,8.75
2023-05-20T03:59:15.776Z,7.53
2023-05-20T04:01:42.274Z,5.25
2023-05-20T04:04:08.830Z,7.15
2023-05-20T04:06:35.915Z,6.28
2023-05-20T04:09:02.347Z,4.18
2023-05-20T04:11:28.737Z,5.60
2023-05-20T04:13:55.157Z,3.95
2023-05-20T04:16:21.654Z,5.05
2023-05-20T04:18:48.352Z,9.15
2023-05-20T04:21:15.041Z,4.88
2023-05-20T04:23:41.786Z,4.60
2023-05-20T04:26:08.234Z,6.40
2023-05-20T04:28:34.637Z,4.35
2023-05-20T04:31:04.331Z,8.00
2023-05-20T04:33:31.155Z,5.00
2023-05-20T04:35:58.674Z,4.22
2023-05-20T04:38:32.509Z,4.18
2023-05-20T04:40:59.671Z,4.38
2023-05-20T04:43:26.330Z,8.23
2023-05-20T04:45:55.613Z,5.28
2023-05-20T04:48:22.453Z,6.30
2023-05-20T04:50:49.453Z,5.90
2023-05-20T04:53:17.428Z,5.18
2023-05-20T04:55:45.229Z,6.47
2023-05-20T04:58:15.229Z,4.50
2023-05-20T05:00:42.343Z,4.95
2023-05-20T05:03:09.325Z,5.90
2023-05-20T05:05:39.153Z,4.47
2023-05-20T05:08:06.775Z,4.85
2023-05-20T05:10:33.334Z,8.75
2023-05-20T05:12:59.759Z,4.80
2023-05-20T05:15:26.200Z,5.60
2023-05-20T05:17:52.957Z,7.28
2023-05-20T05:20:19.444Z,7.40
2023-05-20T05:22:46.094Z,6.60
2023-05-20T05:25:12.958Z,4.88
2023-05-20T05:27:39.590Z,6.50
2023-05-20T05:30:07.222Z,5.70
2023-05-20T05:32:33.904Z,5.10
2023-05-20T05:35:00.497Z,5.15
2023-05-20T05:37:26.989Z,4.88
2023-05-20T05:39:53.420Z,4.35
2023-05-20T05:42:19.843Z,5.40
2023-05-20T05:44:46.237Z,4.32
2023-05-20T05:47:12.724Z,4.63
2023-05-20T05:49:39.213Z,4.95
2023-05-20T05:52:05.725Z,6.57
2023-05-20T05:54:32.124Z,8.10
2023-05-20T05:56:58.568Z,5.70
2023-05-20T05:59:25.079Z,4.95
2023-05-20T06:01:51.616Z,6.20
2023-05-20T06:04:18.138Z,5.00
2023-05-20T06:06:44.623Z,6.05
2023-05-20T06:09:11.063Z,7.85
2023-05-20T06:11:37.490Z,5.60
2023-05-20T06:14:03.956Z,4.28
2023-05-20T06:16:30.406Z,5.97
2023-05-20T06:18:57.294Z,5.10
2023-05-20T06:21:24.213Z,4.93
2023-05-20T06:23:50.662Z,8.18
2023-05-20T06:26:17.098Z,7.35
2023-05-20T06:28:43.569Z,5.43
2023-05-20T06:31:11.131Z,9.38
2023-05-20T06:33:37.685Z,5.13
2023-05-20T06:36:04.170Z,7.65
2023-05-20T06:38:30.695Z,6.25
2023-05-20T06:40:57.132Z,5.93
2023-05-20T06:43:23.540Z,7.07
2023-05-20T06:45:50.844Z,7.95
2023-05-20T06:48:17.262Z,5.07
2023-05-20T06:50:44.719Z,6.35
2023-05-20T06:53:11.159Z,5.13
2023-05-20T06:55:38.052Z,8.63
2023-05-20T06:58:04.463Z,7.10
2023-05-20T07:00:30.988Z,8.27
2023-05-20T07:02:57.806Z,7.60
2023-05-20T07:05:24.469Z,8.35
2023-05-20T07:07:50.970Z,7.95
2023-05-20T07:10:17.374Z,8.50
2023-05-20T07:12:43.821Z,7.10
2023-05-20T07:15:10.643Z,7.88
2023-05-20T07:17:37.104Z,6.13
2023-05-20T07:20:04.175Z,8.15
2023-05-20T07:22:30.622Z,6.97
2023-05-20T07:24:57.145Z,6.80
2023-05-20T07:27:23.569Z,7.90
2023-05-20T07:29:50.199Z,7.72
2023-05-20T07:32:16.877Z,10.30
2023-05-20T07:34:43.687Z,6.90
2023-05-20T07:37:12.604Z,7.13
2023-05-20T07:39:39.057Z,10.48
2023-05-20T07:42:05.822Z,7.55
2023-05-20T07:44:32.601Z,8.73
2023-05-20T07:46:59.011Z,10.10
2023-05-20T07:49:25.430Z,9.73
2023-05-20T07:51:51.955Z,6.90
2023-05-20T07:54:18.397Z,7.97
2023-05-20T07:56:44.903Z,7.75
2023-05-20T07:59:11.384Z,7.50
2023-05-20T08:01:37.955Z,10.00
2023-05-20T08:04:04.671Z,9.30
2023-05-20T08:06:32.630Z,9.95
2023-05-20T08:08:59.053Z,8.93
2023-05-20T08:11:25.555Z,10.43
2023-05-20T08:13:52.037Z,9.88
2023-05-20T08:16:18.624Z,11.45
2023-05-20T08:18:45.202Z,9.40
2023-05-20T08:21:12.221Z,9.82
2023-05-20T08:23:40.564Z,11.82
2023-05-20T08:26:07.616Z,8.63
2023-05-20T08:28:34.188Z,12.98
2023-05-20T08:31:03.603Z,9.10
2023-05-20T08:33:30.088Z,10.95
2023-05-20T08:35:56.642Z,11.20
2023-05-20T08:38:23.108Z,9.13
2023-05-20T08:40:54.735Z,10.25
2023-05-20T08:43:21.788Z,8.80
2023-05-20T08:45:48.380Z,11.93
2023-05-20T08:48:16.684Z,10.30
2023-05-20T08:50:44.407Z,11.13
2023-05-20T08:53:10.894Z,11.75
2023-05-20T08:55:42.759Z,8.48
2023-05-20T08:58:10.057Z,8.68
2023-05-20T09:00:37.384Z,9.00
2023-05-20T09:03:04.257Z,9.45
2023-05-20T09:05:31.330Z,8.75
2023-05-20T09:08:08.029Z,8.60
2023-05-20T09:10:35.049Z,9.05
2023-05-20T09:13:02.621Z,9.48
2023-05-20T09:15:29.054Z,10.02
2023-05-20T09:17:55.888Z,10.25
2023-05-20T09:20:23.190Z,10.02
2023-05-20T09:22:53.220Z,8.38
2023-05-20T09:25:23.793Z,8.63
2023-05-20T09:27:50.582Z,7.50
2023-05-20T09:30:20.819Z,10.00
2023-05-20T09:32:57.494Z,11.90
2023-05-20T09:35:24.735Z,8.45
2023-05-20T09:37:56.433Z,9.20
2023-05-20T09:40:26.083Z,9.20
2023-05-20T09:43:08.088Z,9.50
2023-05-20T09:45:35.121Z,12.50
2023-05-20T09:48:02.200Z,11.57
2023-05-20T09:50:30.051Z,7.93
2023-05-20T09:52:56.893Z,10.23
2023-05-20T09:55:24.941Z,7.75
2023-05-20T09:57:51.855Z,9.23
2023-05-20T10:00:19.530Z,8.85
2023-05-20T10:02:50.321Z,10.23
2023-05-20T10:05:20.832Z,9.18
2023-05-20T10:08:02.032Z,9.60
2023-05-20T10:10:28.419Z,8.32
2023-05-20T10:13:27.449Z,8.00
2023-05-20T10:16:09.128Z,7.60
2023-05-20T10:18:55.592Z,7.68
2023-05-20T10:21:24.504Z,10.68
2023-05-20T10:23:51.851Z,6.93
2023-05-20T10:26:19.022Z,9.98
2023-05-20T10:28:46.285Z,8.60
2023-05-20T10:31:21.592Z,7.75
2023-05-20T10:33:48.853Z,7.88
2023-05-20T10:36:29.024Z,7.82
2023-05-20T10:38:56.837Z,8.38
2023-05-20T10:41:27.815Z,9.20
2023-05-20T10:44:04.376Z,7.47
2023-05-20T10:46:40.117Z,9.07
2023-05-20T10:49:21.226Z,7.32
2023-05-20T10:51:51.429Z,10.70
2023-05-20T10:54:17.882Z,7.90
2023-05-20T10:56:52.571Z,7.43
2023-05-20T10:59:19.589Z,9.20
2023-05-20T11:01:46.416Z,6.30
2023-05-20T11:04:14.569Z,7.20
2023-05-20T11:06:50.350Z,6.57
2023-05-20T11:09:16.766Z,6.50
2023-05-20T11:11:43.216Z,6.43
2023-05-20T11:14:13.622Z,5.85
2023-05-20T11:16:40.665Z,6.30
2023-05-20T11:19:08.746Z,6.10
2023-05-20T11:21:35.309Z,6.63
2023-05-20T11:24:01.697Z,5.68
2023-05-20T11:26:29.317Z,9.63
2023-05-20T11:28:56.405Z,6.10
2023-05-20T11:31:24.473Z,7.13
2023-05-20T11:33:50.860Z,11.38
2023-05-20T11:36:27.501Z,8.30
2023-05-20T11:38:55.433Z,5.25
2023-05-20T11:41:25.567Z,6.15
2023-05-20T11:44:01.486Z,6.50
2023-05-20T11:46:28.353Z,8.27
2023-05-20T11:48:55.255Z,10.85
2023-05-20T11:51:27.028Z,6.88
2023-05-20T11:53:53.807Z,6.20
2023-05-20T11:56:21.610Z,9.60
2023-05-20T11:58:48.193Z,10.75
2023-05-20T12:03:47.453Z,5.38
2023-05-20T12:06:14.855Z,5.82
2023-05-20T12:08:41.300Z,6.30
2023-05-20T12:11:07.746Z,9.75
2023-05-20T12:13:35.398Z,7.32
2023-05-20T12:16:02.315Z,5.93
2023-05-20T12:18:28.780Z,8.07
2023-05-20T12:20:55.228Z,8.57
2023-05-20T12:23:21.695Z,5.57
2023-05-20T12:25:49.783Z,6.03
2023-05-20T12:28:17.615Z,5.25
2023-05-20T12:30:44.151Z,7.10
2023-05-20T12:33:10.593Z,5.93
2023-05-20T12:35:42.102Z,5.78
2023-05-20T12:38:08.813Z,5.90
2023-05-20T12:40:36.234Z,7.78
2023-05-20T12:43:03.970Z,5.15
2023-05-20T12:45:30.711Z,5.68
2023-05-20T12:47:57.462Z,5.47
2023-05-20T12:50:25.332Z,5.03
2023-05-20T12:52:51.789Z,5.55
2023-05-20T12:55:18.224Z,4.40
2023-05-20T12:57:45.456Z,4.47
2023-05-20T13:00:12.970Z,5.10
2023-05-20T13:02:41.687Z,7.25
2023-05-20T13:05:08.297Z,4.80
2023-05-20T13:07:34.871Z,4.25
2023-05-20T13:10:01.588Z,5.65
2023-05-20T13:12:28.145Z,5.55
2023-05-20T13:14:54.562Z,5.97
2023-05-20T13:17:20.994Z,4.80
2023-05-20T13:19:47.491Z,5.55
2023-05-20T13:22:13.923Z,6.13
2023-05-20T13:24:40.681Z,5.82
2023-05-20T13:27:07.105Z,4.90
2023-05-20T13:29:33.529Z,4.93
2023-05-20T13:32:01.869Z,4.85
2023-05-20T13:34:30.313Z,4.55
2023-05-20T13:36:56.805Z,5.03
2023-05-20T13:39:23.288Z,6.13
2023-05-20T13:41:49.851Z,6.25
2023-05-20T13:44:16.351Z,7.65
2023-05-20T13:46:42.799Z,4.88
2023-05-20T13:49:09.246Z,7.43
2023-05-20T13:51:35.810Z,5.38
2023-05-20T13:54:02.541Z,5.10
2023-05-20T13:56:29.057Z,5.97
2023-05-20T13:58:55.536Z,5.20
2023-05-20T14:01:22.040Z,5.35
2023-05-20T14:03:48.548Z,5.00
2023-05-20T14:06:18.591Z,6.18
2023-05-20T14:08:46.046Z,8.18
2023-05-20T14:11:12.948Z,5.57
2023-05-20T14:13:39.377Z,8.32
2023-05-20T14:16:06.122Z,7.22
2023-05-20T14:18:32.722Z,6.70
2023-05-20T14:20:59.230Z,5.57
2023-05-20T14:23:25.643Z,6.00
2023-05-20T14:25:52.136Z,5.90
2023-05-20T14:28:18.572Z,8.07
2023-05-20T14:30:45.048Z,6.47
2023-05-20T14:33:11.570Z,5.90
2023-05-20T14:35:38.066Z,5.90
2023-05-20T14:38:04.569Z,5.85
2023-05-20T14:40:31.014Z,9.77
2023-05-20T14:42:57.428Z,6.32
2023-05-20T14:45:23.906Z,6.93
2023-05-20T14:47:50.406Z,6.35
2023-05-20T14:50:16.940Z,6.68
2023-05-20T14:52:43.364Z,6.13
2023-05-20T14:55:09.803Z,7.15
2023-05-20T14:57:36.406Z,6.55
2023-05-20T15:00:04.074Z,6.78
2023-05-20T15:02:30.689Z,6.53
2023-05-20T15:04:57.186Z,6.75
2023-05-20T15:07:23.615Z,5.90
2023-05-20T15:09:50.062Z,7.18
2023-05-20T15:12:16.481Z,7.20
2023-05-20T15:14:42.902Z,6.90
2023-05-20T15:17:09.442Z,6.03
2023-05-20T15:19:38.288Z,6.13
2023-05-20T15:22:06.162Z,6.38
2023-05-20T15:24:33.135Z,6.40
2023-05-20T15:26:59.579Z,8.95
2023-05-20T15:29:26.345Z,6.65
2023-05-20T15:31:52.782Z,6.32
2023-05-20T15:34:19.208Z,6.32
2023-05-20T15:36:45.680Z,6.15
2023-05-20T15:39:12.905Z,6.55
2023-05-20T15:41:40.687Z,5.30
2023-05-20T15:44:07.190Z,7.03
2023-05-20T15:46:33.922Z,6.60
2023-05-20T15:49:00.440Z,6.32
2023-05-20T15:51:26.894Z,7.25
2023-05-20T15:53:53.406Z,6.03
2023-05-20T15:56:19.841Z,7.28
2023-05-20T15:58:46.584Z,7.20
2023-05-20T16:01:13.050Z,6.13
2023-05-20T16:03:39.890Z,5.88
2023-05-20T16:06:07.319Z,5.15
2023-05-20T16:08:36.159Z,5.07
2023-05-20T16:11:02.651Z,4.95
2023-05-20T16:13:29.086Z,5.13
2023-05-20T16:15:57.630Z,7.43
2023-05-20T16:18:24.537Z,5.13
2023-05-20T16:20:51.076Z,5.20
2023-05-20T16:23:17.509Z,5.40
2023-05-20T16:25:43.971Z,4.88
2023-05-20T16:28:10.426Z,4.90
2023-05-20T16:30:37.032Z,5.20
2023-05-20T16:33:03.681Z,5.22
2023-05-20T16:35:30.152Z,5.63
2023-05-20T16:37:56.687Z,5.57
2023-05-20T16:40:23.116Z,7.80
2023-05-20T16:42:49.556Z,5.80
2023-05-20T16:45:16.082Z,5.20
2023-05-20T16:47:42.582Z,5.90
2023-05-20T16:50:09.601Z,5.50
2023-05-20T16:52:37.797Z,7.85
2023-05-20T16:55:07.877Z,7.30
2023-05-20T16:57:35.020Z,6.13
2023-05-20T17:00:02.056Z,5.65
2023-05-20T17:02:28.520Z,7.30
2023-05-20T17:04:54.968Z,5.65
2023-05-20T17:07:21.506Z,6.13
2023-05-20T17:09:47.948Z,6.63
2023-05-20T17:12:14.392Z,5.97
2023-05-20T17:14:40.833Z,6.47
2023-05-20T17:17:09.237Z,5.20
2023-05-20T17:19:36.195Z,6.80
2023-05-20T17:22:02.652Z,5.40
2023-05-20T17:24:29.068Z,6.20
2023-05-20T17:26:55.489Z,5.20
2023-05-20T17:29:21.997Z,7.13
2023-05-20T17:31:48.436Z,5.40
2023-05-20T17:34:14.938Z,6.30
2023-05-20T17:36:41.421Z,5.97
2023-05-20T17:39:09.512Z,8.15
2023-05-20T17:41:35.932Z,7.60
2023-05-20T17:44:02.394Z,7.28
2023-05-20T17:46:28.861Z,7.03
2023-05-20T17:48:56.718Z,8.73
2023-05-20T17:51:23.166Z,7.93
2023-05-20T17:53:49.591Z,9.07
2023-05-20T17:56:16.236Z,9.50
2023-05-20T17:58:44.890Z,9.00
2023-05-20T18:01:11.379Z,10.95
2023-05-20T18:03:39.679Z,9.27
2023-05-20T18:06:06.366Z,10.45
2023-05-20T18:08:35.766Z,9.23
2023-05-20T18:11:02.319Z,10.35
2023-05-20T18:13:28.840Z,10.63
2023-05-20T18:15:55.351Z,9.68
2023-05-20T18:18:21.822Z,10.05
2023-05-20T18:20:48.305Z,10.07
2023-05-20T18:23:14.747Z,9.50
2023-05-20T18:25:42.756Z,10.45
2023-05-20T18:28:09.757Z,13.95
2023-05-20T18:30:36.587Z,10.57
2023-05-20T18:33:03.261Z,10.50
2023-05-20T18:35:29.737Z,10.57
2023-05-20T18:37:56.338Z,12.02
2023-05-20T18:40:22.820Z,10.88
2023-05-20T18:42:49.261Z,10.18
2023-05-20T18:45:16.022Z,10.35
2023-05-20T18:47:42.541Z,11.70
2023-05-20T18:50:09.450Z,11.90
2023-05-20T18:52:35.995Z,12.18
2023-05-20T18:55:02.510Z,13.05
2023-05-20T18:57:29.010Z,14.57
2023-05-20T18:59:55.601Z,11.40
2023-05-20T19:02:22.106Z,13.90
2023-05-20T19:04:48.631Z,10.52
2023-05-20T19:07:15.333Z,11.43
2023-05-20T19:09:41.813Z,12.35
2023-05-20T19:12:08.393Z,9.75
2023-05-20T19:14:34.826Z,9.77
2023-05-20T19:17:01.364Z,13.35
2023-05-20T19:19:28.073Z,13.32
2023-05-20T19:21:54.650Z,11.07
2023-05-20T19:24:21.070Z,10.80
2023-05-20T19:26:47.492Z,11.70
2023-05-20T19:29:15.022Z,10.80
2023-05-20T19:31:43.106Z,11.02
2023-05-20T19:34:09.973Z,11.70
2023-05-20T19:36:38.052Z,11.50
2023-05-20T19:39:04.483Z,11.13
2023-05-20T19:41:31.252Z,11.65
2023-05-20T19:43:57.652Z,11.63
2023-05-20T19:46:24.253Z,15.45
2023-05-20T19:48:50.711Z,14.05
2023-05-20T19:51:17.168Z,15.32
2023-05-20T19:53:43.603Z,13.02
2023-05-20T19:56:10.496Z,13.70
2023-05-20T19:58:36.957Z,14.18
2023-05-20T20:01:04.450Z,13.60
2023-05-20T20:03:31.064Z,15.65
2023-05-20T20:05:57.571Z,13.15
2023-05-20T20:08:24.113Z,14.80
2023-05-20T20:10:50.671Z,13.10
2023-05-20T20:13:17.109Z,13.80
2023-05-20T20:15:43.709Z,15.20
2023-05-20T20:18:10.271Z,12.70
2023-05-20T20:20:40.055Z,15.10
2023-05-20T20:23:07.884Z,13.55
2023-05-20T20:25:38.641Z,17.88
2023-05-20T20:28:06.026Z,15.57
2023-05-20T20:30:32.438Z,14.70
2023-05-20T20:32:58.920Z,14.63
2023-05-20T20:35:25.449Z,15.38
2023-05-20T20:37:54.687Z,20.38
2023-05-20T20:40:22.295Z,16.23
2023-05-20T20:42:48.854Z,15.43
2023-05-20T20:45:15.715Z,15.02
2023-05-20T20:47:43.839Z,18.20
2023-05-20T20:50:13.742Z,15.20
2023-05-20T20:52:40.406Z,14.80
2023-05-20T20:55:07.295Z,13.65
2023-05-20T20:57:35.123Z,16.50
2023-05-20T21:00:16.206Z,16.17
2023-05-20T21:02:43.262Z,15.20
2023-05-20T21:05:10.498Z,16.73
2023-05-20T21:07:42.589Z,13.77
2023-05-20T21:12:35.803Z,18.52
2023-05-20T21:15:02.265Z,15.05
2023-05-20T21:17:28.727Z,15.52
2023-05-20T21:19:55.252Z,19.70
2023-05-20T21:22:21.840Z,17.08
2023-05-20T21:24:48.257Z,16.25
2023-05-20T21:27:14.677Z,15.65
2023-05-20T21:29:41.156Z,16.95
2023-05-20T21:32:07.941Z,15.38
2023-05-20T21:34:34.369Z,19.27
2023-05-20T21:37:00.938Z,15.23
2023-05-20T21:39:27.345Z,15.35
2023-05-20T21:41:53.754Z,15.32
2023-05-20T21:44:20.268Z,16.75
2023-05-20T21:46:46.728Z,16.58
2023-05-20T21:49:13.197Z,16.65
2023-05-20T21:51:39.622Z,22.33
2023-05-20T21:54:06.050Z,16.50
2023-05-20T21:56:32.480Z,14.07
2023-05-20T21:58:58.909Z,14.45
2023-05-20T22:01:25.369Z,16.13
2023-05-20T22:03:53.177Z,15.35
2023-05-20T22:06:21.342Z,16.92
2023-05-20T22:08:48.890Z,18.48
2023-05-20T22:11:15.619Z,17.60
2023-05-20T22:13:43.151Z,17.05
2023-05-20T22:16:10.106Z,17.02
2023-05-20T22:18:36.557Z,17.63
2023-05-20T22:21:03.864Z,16.85
2023-05-20T22:23:30.282Z,18.88
2023-05-20T22:25:57.379Z,20.83
2023-05-20T22:28:26.055Z,22.27
2023-05-20T22:30:52.503Z,18.85
2023-05-20T22:33:18.968Z,16.20
2023-05-20T22:35:45.412Z,18.58
2023-05-20T22:38:11.836Z,19.05
2023-05-20T22:40:39.204Z,16.65
2023-05-20T22:43:05.819Z,19.30
2023-05-20T22:45:32.251Z,19.95
2023-05-20T22:47:58.772Z,17.05
2023-05-20T22:50:26.167Z,18.55
2023-05-20T22:52:52.602Z,19.65
2023-05-20T22:55:19.040Z,16.85
2023-05-20T22:57:45.491Z,16.98
2023-05-20T23:00:15.006Z,18.35
2023-05-20T23:02:41.656Z,16.00
2023-05-20T23:05:08.462Z,20.77
2023-05-20T23:07:34.938Z,17.90
2023-05-20T23:10:02.420Z,15.07
2023-05-20T23:12:28.906Z,14.77
2023-05-20T23:14:55.331Z,16.83
2023-05-20T23:17:21.852Z,15.25
2023-05-20T23:19:48.306Z,14.98
2023-05-20T23:22:14.818Z,14.32
2023-05-20T23:24:41.388Z,12.93
2023-05-20T23:27:07.873Z,11.68
2023-05-20T23:29:34.300Z,14.65
2023-05-20T23:32:00.736Z,17.83
2023-05-20T23:34:27.306Z,12.50
2023-05-20T23:36:53.759Z,11.05
2023-05-20T23:39:20.829Z,14.45
2023-05-20T23:41:47.263Z,13.45
2023-05-20T23:44:13.726Z,11.75
2023-05-20T23:46:41.705Z,10.73
2023-05-20T23:49:10.164Z,13.07
2023-05-20T23:51:36.617Z,12.32
2023-05-20T23:54:03.028Z,11.20
2023-05-20T23:56:29.453Z,12.13
2023-05-20T23:58:57.625Z,12.82
